Snicarte, Illinois
Current Conditions -  °F | °C
As of 4:35 AM on Saturday 01 Nov 2014 (Local Time) from KIJX Reporting Station
Clear Clear  
Wind Chill: 22°   Ceiling: Unl
Heat Index: 29°   Visibility: 10mi
Dew Point: 22°   Wind: 8mph
Humidity: 74%   Direction: 330°NNW
Pressure: 30.43"   Gusts: NA
Location:  40.1345°N, 90.1653°W
Report Text: KIJX 010935Z AUTO 33007KT 10SM CLR M01/M06 A3043 RMK AO2 T10151056
Loading
Personal Weather Stations






























Interactive Weather Map
Tropical Storm Tracking
New forecast layout! Learn more

10-Day Weather Forecast

Advertisements
Track Severe Weather on mobile